Time;durP1;ratioP1;P1;durP2;ratioP2;P2;SDS_P1;SDS_P2;PMS_P1;PMS_P2;Temp;Humidity;BMP_temperature;BMP_pressure;BME280_temperature;BME280_humidity;BME280_pressure;Samples;Min_cycle;Max_cycle;Signal;HPM_P1;HPM_P2
2022/04/16 06:06:06;;;;;;;;;;;;;;;23.40;35.70;98533.19;5139965;23;19976;-68
2022/04/16 06:08:33;;;;;;;;;;;;;;;23.48;34.84;98527.94;4883212;29;19973;-69
2022/04/16 06:11:00;;;;;;;;;;;;;;;23.42;35.34;98532.72;4883042;29;19955;-69
2022/04/16 06:13:30;;;;;;;;;;;;;;;24.07;35.17;98521.44;4883082;29;19952;-68
2022/04/16 06:15:59;;;;;;;;;;;;;;;24.32;33.85;98519.38;4883081;29;20267;-68
2022/04/16 06:18:26;;;;;;;;;;;;;;;24.01;34.22;98523.31;4882725;29;20255;-68
2022/04/16 06:20:56;;;;;;;;;;;;;;;23.80;34.42;98523.56;4885595;29;19953;-69
2022/04/16 06:23:24;;;;;;;;;;;;;;;23.41;34.81;98531.13;4883521;29;19954;-68
2022/04/16 06:25:51;;;;;;;;;;;;;;;23.13;35.71;98521.81;4883663;29;19951;-68
2022/04/16 06:28:19;;;;;;;;;;;;;;;22.99;36.34;98524.50;4885178;29;19957;-68
2022/04/16 06:30:46;;;;;;;;;;;;;;;22.87;36.02;98514.84;4883987;29;19960;-68
2022/04/16 06:33:13;;;;;;;;;;;;;;;22.76;36.62;98511.69;4883551;29;19982;-68
2022/04/16 06:35:42;;;;;;;;;;;;;;;22.61;36.65;98519.25;4896597;29;19968;-68
2022/04/16 06:38:09;;;;;;;;;;;;;;;22.39;36.36;98513.69;4884415;29;19955;-68
2022/04/16 06:40:36;;;;;;;;;;;;;;;21.89;37.95;98509.25;4882796;29;19955;-68
2022/04/16 06:43:04;;;;;;;;;;;;;;;21.57;38.84;98516.19;4889671;29;19949;-68
2022/04/16 06:45:32;;;;;;;;;;;;;;;21.19;40.10;98520.56;4896180;29;20223;-68
2022/04/16 06:47:59;;;;;;;;;;;;;;;20.61;43.62;98520.22;4889185;29;19953;-68
2022/04/16 06:50:26;;;;;;;;;;;;;;;20.51;43.45;98510.03;4879117;29;20228;-68
2022/04/16 06:52:54;;;;;;;;;;;;;;;20.29;43.61;98516.47;4881315;29;19946;-68
2022/04/16 06:55:22;;;;;;;;;;;;;;;19.96;45.90;98515.09;4881892;29;20255;-69
2022/04/16 06:57:49;;;;;;;;;;;;;;;19.87;46.38;98508.53;4881221;29;19948;-68
2022/04/16 07:00:17;;;;;;;;;;;;;;;19.93;45.54;98515.25;4883220;29;19949;-68
2022/04/16 07:02:44;;;;;;;;;;;;;;;19.82;47.47;98515.56;4883101;29;19946;-68
2022/04/16 07:05:11;;;;;;;;;;;;;;;19.97;50.43;98513.06;4882998;29;20257;-68
2022/04/16 07:07:38;;;;;;;;;;;;;;;19.93;51.71;98518.06;4879250;29;19985;-68
2022/04/16 07:10:07;;;;;;;;;;;;;;;19.90;51.35;98516.94;4883093;29;19956;-68
2022/04/16 07:12:34;;;;;;;;;;;;;;;19.79;49.39;98513.63;4881866;29;19956;-68
2022/04/16 07:15:02;;;;;;;;;;;;;;;19.76;48.54;98520.22;4883573;29;19971;-68
2022/04/16 07:17:29;;;;;;;;;;;;;;;19.72;49.05;98513.06;4882461;29;19951;-68
2022/04/16 07:19:56;;;;;;;;;;;;;;;19.78;48.34;98511.25;4882793;29;19957;-68
2022/04/16 07:22:24;;;;;;;;;;;;;;;19.77;48.60;98504.00;4882635;29;19948;-68
2022/04/16 07:24:51;;;;;;;;;;;;;;;19.85;48.77;98502.53;4883307;29;19948;-68
2022/04/16 07:27:19;;;;;;;;;;;;;;;19.64;49.67;98501.94;4882338;29;19950;-68
2022/04/16 07:29:46;;;;;;;;;;;;;;;19.78;49.43;98502.75;4883167;29;20243;-68
2022/04/16 07:32:13;;;;;;;;;;;;;;;19.74;49.11;98507.72;4881774;29;19957;-68
2022/04/16 07:34:41;;;;;;;;;;;;;;;19.93;47.63;98496.13;4883038;29;19967;-68
2022/04/16 07:37:09;;;;;;;;;;;;;;;19.84;48.55;98512.28;4883125;29;19954;-68
2022/04/16 07:39:36;;;;;;;;;;;;;;;20.01;48.98;98503.19;4883550;29;19954;-68
2022/04/16 07:42:03;;;;;;;;;;;;;;;20.08;50.40;98511.44;4883442;29;20352;-69
2022/04/16 07:44:31;;;;;;;;;;;;;;;20.17;49.11;98513.63;4882232;29;20342;-69
2022/04/16 07:46:58;;;;;;;;;;;;;;;20.12;49.08;98514.19;4883077;29;19959;-69
2022/04/16 07:49:25;;;;;;;;;;;;;;;19.94;51.15;98511.94;4882183;29;19975;-69
2022/04/16 07:51:52;;;;;;;;;;;;;;;20.07;51.84;98515.56;4882766;29;19958;-69
2022/04/16 07:54:20;;;;;;;;;;;;;;;20.05;51.69;98514.44;4876970;29;19982;-69
2022/04/16 07:56:47;;;;;;;;;;;;;;;19.90;56.07;98525.44;4882400;29;20340;-69
2022/04/16 07:59:14;;;;;;;;;;;;;;;19.98;56.83;98518.28;4880403;29;19958;-69
2022/04/16 08:01:42;;;;;;;;;;;;;;;19.88;55.56;98516.56;4876936;29;19963;-69
2022/04/16 08:04:09;;;;;;;;;;;;;;;19.75;54.61;98515.81;4883799;29;19959;-69
2022/04/16 08:06:37;;;;;;;;;;;;;;;19.74;55.03;98527.59;4884161;29;20041;-69
2022/04/16 08:09:04;;;;;;;;;;;;;;;19.68;56.93;98513.97;4884815;29;19957;-68
2022/04/16 08:11:32;;;;;;;;;;;;;;;19.53;56.49;98524.19;4882640;29;19955;-69
2022/04/16 08:13:59;;;;;;;;;;;;;;;19.58;57.26;98523.63;4884851;29;19953;-68
2022/04/16 08:16:26;;;;;;;;;;;;;;;19.63;55.72;98525.13;4866704;29;19975;-69
2022/04/16 08:18:54;;;;;;;;;;;;;;;19.74;56.26;98517.03;4876814;29;19958;-68
2022/04/16 08:21:21;;;;;;;;;;;;;;;19.76;56.28;98517.38;4885171;29;19962;-68
2022/04/16 08:24:39;;;;;;;;;;;;;;;19.78;56.01;98516.94;4883501;29;19953;-68
2022/04/16 08:26:42;;;;;;;;;;;;;;;19.97;43.85;98522.38;4879099;29;19947;-68
2022/04/16 08:29:09;;;;;;;;;;;;;;;19.90;42.44;98518.97;4879326;29;19950;-68
2022/04/16 08:31:37;;;;;;;;;;;;;;;19.80;45.22;98520.13;4884439;29;20334;-68
2022/04/16 08:34:10;;;;;;;;;;;;;;;19.84;42.82;98523.63;4885279;29;20016;-68
2022/04/16 08:36:37;;;;;;;;;;;;;;;19.90;48.01;98516.94;4886298;29;19964;-68
2022/04/16 08:39:04;;;;;;;;;;;;;;;20.07;46.31;98507.03;4878629;29;19959;-68
2022/04/16 08:41:32;;;;;;;;;;;;;;;20.00;43.72;98509.31;4891097;29;19954;-68
2022/04/16 08:43:59;;;;;;;;;;;;;;;19.94;42.69;98511.13;4887504;29;19951;-68
2022/04/16 08:46:30;;;;;;;;;;;;;;;20.05;41.82;98515.19;4873389;29;19950;-69
2022/04/16 08:48:58;;;;;;;;;;;;;;;19.95;44.28;98516.38;4883075;29;19958;-68
2022/04/16 08:51:25;;;;;;;;;;;;;;;20.13;48.55;98513.72;4884407;29;19977;-68
2022/04/16 08:53:55;;;;;;;;;;;;;;;20.20;40.49;98510.63;4884206;29;19959;-68
2022/04/16 08:56:23;;;;;;;;;;;;;;;20.13;45.72;98510.06;4884482;29;19965;-68
2022/04/16 08:58:51;;;;;;;;;;;;;;;19.93;41.24;98509.56;4884696;29;19948;-68
2022/04/16 09:01:19;;;;;;;;;;;;;;;19.93;41.18;98513.16;4880798;29;20363;-68
2022/04/16 09:03:48;;;;;;;;;;;;;;;20.08;42.13;98511.44;4884452;29;19949;-68
2022/04/16 09:06:22;;;;;;;;;;;;;;;19.92;49.05;98520.13;4882692;29;19952;-69
2022/04/16 09:08:50;;;;;;;;;;;;;;;20.02;50.08;98513.28;4882399;29;20217;-68
2022/04/16 09:11:21;;;;;;;;;;;;;;;19.86;45.23;98515.44;4884317;29;19953;-68
2022/04/16 09:13:55;;;;;;;;;;;;;;;19.86;47.10;98518.28;4883984;29;19954;-68
2022/04/16 09:16:23;;;;;;;;;;;;;;;19.77;48.14;98521.00;4882726;29;19972;-68
2022/04/16 09:18:51;;;;;;;;;;;;;;;19.68;48.83;98516.81;4882607;29;19952;-68
2022/04/16 09:21:19;;;;;;;;;;;;;;;19.57;47.68;98510.69;4884881;29;19950;-68
2022/04/16 09:23:53;;;;;;;;;;;;;;;19.67;51.87;98503.09;4883623;29;19952;-68
2022/04/16 09:26:36;;;;;;;;;;;;;;;19.80;49.16;98500.25;4884577;29;20334;-68
2022/04/16 09:29:14;;;;;;;;;;;;;;;19.82;49.90;98507.06;4884874;29;19951;-69
2022/04/16 09:31:45;;;;;;;;;;;;;;;19.85;50.82;98506.16;4885233;29;19944;-68
2022/04/16 09:34:20;;;;;;;;;;;;;;;19.96;53.25;98492.41;4883128;29;19951;-69
2022/04/16 09:36:48;;;;;;;;;;;;;;;19.73;50.89;98500.47;4885202;29;20350;-68
2022/04/16 09:39:16;;;;;;;;;;;;;;;19.69;52.13;98506.25;4884564;29;19958;-68
2022/04/16 09:41:47;;;;;;;;;;;;;;;19.59;52.88;98496.84;4884395;29;19950;-68
2022/04/16 09:44:18;;;;;;;;;;;;;;;19.72;53.83;98505.34;4884412;29;19951;-68
2022/04/16 09:46:49;;;;;;;;;;;;;;;19.75;54.77;98512.97;4883823;29;20260;-68
2022/04/16 09:49:17;;;;;;;;;;;;;;;19.79;52.51;98516.47;4884435;29;20195;-68
2022/04/16 09:51:45;;;;;;;;;;;;;;;19.82;52.98;98514.78;4884483;29;20211;-68
2022/04/16 09:54:13;;;;;;;;;;;;;;;19.87;53.29;98508.53;4883967;29;20019;-68
2022/04/16 09:56:42;;;;;;;;;;;;;;;19.94;55.44;98496.94;4884570;29;19968;-68
2022/04/16 09:59:12;;;;;;;;;;;;;;;19.92;49.67;98491.72;4883748;29;19957;-68
2022/04/16 10:01:46;;;;;;;;;;;;;;;19.80;49.25;98492.53;4883971;29;19955;-68
2022/04/16 10:04:17;;;;;;;;;;;;;;;19.94;50.87;98486.38;4884042;29;19950;-68
2022/04/16 10:06:45;;;;;;;;;;;;;;;19.81;50.87;98484.78;4883559;29;20093;-69
2022/04/16 10:09:17;;;;;;;;;;;;;;;19.83;49.14;98477.41;4884143;29;19957;-68
2022/04/16 10:14:46;;;;;;;;;;;;;;;19.72;48.71;98476.97;4883518;29;19981;-69
2022/04/16 10:17:14;;;;;;;;;;;;;;;19.63;49.98;98468.38;4883621;29;19970;-69
2022/04/16 10:19:48;;;;;;;;;;;;;;;19.62;52.87;98458.25;4883438;29;19958;-68
2022/04/16 10:22:55;;;;;;;;;;;;;;;19.65;49.82;98461.00;4883417;29;19945;-68
2022/04/16 10:25:28;;;;;;;;;;;;;;;19.78;51.31;98457.34;4882890;29;19953;-68
2022/04/16 10:28:00;;;;;;;;;;;;;;;19.77;52.13;98458.59;4883776;29;20220;-68
2022/04/16 10:30:35;;;;;;;;;;;;;;;19.89;53.02;98467.09;4883904;29;20242;-68
2022/04/16 10:33:14;;;;;;;;;;;;;;;19.89;52.59;98460.63;4882360;29;20250;-69
2022/04/16 10:35:50;;;;;;;;;;;;;;;20.15;53.79;98457.25;4881500;29;19966;-69
2022/04/16 10:38:21;;;;;;;;;;;;;;;20.20;51.91;98455.88;4878736;29;19950;-69
2022/04/16 10:40:55;;;;;;;;;;;;;;;20.14;50.26;98460.56;4881297;29;19954;-68
2022/04/16 10:43:25;;;;;;;;;;;;;;;20.12;57.97;98468.75;4880814;29;19959;-69
2022/04/16 10:45:56;;;;;;;;;;;;;;;20.18;54.17;98467.72;4882691;29;19952;-69
2022/04/16 10:48:24;;;;;;;;;;;;;;;20.33;48.01;98470.88;4882298;29;19953;-68
2022/04/16 10:50:52;;;;;;;;;;;;;;;20.17;50.59;98466.13;4881085;29;19950;-69
2022/04/16 10:53:28;;;;;;;;;;;;;;;20.37;58.55;98470.78;4881598;29;20345;-68
2022/04/16 10:55:56;;;;;;;;;;;;;;;20.45;53.09;98464.38;4882047;29;19966;-68
2022/04/16 10:58:27;;;;;;;;;;;;;;;20.19;54.69;98454.31;4882719;29;20338;-68
2022/04/16 11:01:04;;;;;;;;;;;;;;;20.09;53.99;98452.63;4897953;29;19955;-69
2022/04/16 11:03:31;;;;;;;;;;;;;;;20.15;52.60;98454.44;4875100;29;19945;-69
2022/04/16 11:06:05;;;;;;;;;;;;;;;20.12;57.29;98452.53;4883371;29;19950;-68
2022/04/16 11:08:36;;;;;;;;;;;;;;;20.21;71.46;98448.97;4881816;29;19977;-68
2022/04/16 11:11:05;;;;;;;;;;;;;;;20.19;57.74;98443.75;4880516;29;19952;-69
2022/04/16 11:13:34;;;;;;;;;;;;;;;20.26;60.37;98439.91;4883113;29;19960;-69
2022/04/16 11:16:03;;;;;;;;;;;;;;;20.46;63.35;98439.59;4883129;29;19972;-68
2022/04/16 11:18:43;;;;;;;;;;;;;;;20.53;62.88;98439.34;4883128;29;20349;-68
2022/04/16 11:21:17;;;;;;;;;;;;;;;20.35;62.78;98424.97;4883030;29;20374;-69
2022/04/16 11:23:44;;;;;;;;;;;;;;;20.18;61.27;98432.84;4882876;29;19952;-69
2022/04/16 11:34:32;;;;;;;;;;;;;;;20.45;69.39;98415.28;4883226;29;19951;-68
2022/04/16 11:37:08;;;;;;;;;;;;;;;20.14;61.53;98427.31;4884882;29;20363;-69
2022/04/16 11:39:35;;;;;;;;;;;;;;;20.13;65.67;98411.50;4886949;29;19954;-69
2022/04/16 11:42:07;;;;;;;;;;;;;;;20.21;70.49;98412.84;4886308;29;19951;-69
2022/04/16 11:44:40;;;;;;;;;;;;;;;20.14;69.24;98398.91;4885997;29;19948;-69
2022/04/16 11:47:09;;;;;;;;;;;;;;;20.10;67.30;98398.22;4886668;29;20245;-81
2022/04/16 11:49:37;;;;;;;;;;;;;;;20.07;67.61;98404.84;4885216;29;19953;-68
2022/04/16 11:52:05;;;;;;;;;;;;;;;20.11;67.95;98394.13;4890599;29;20217;-69
2022/04/16 11:54:32;;;;;;;;;;;;;;;20.24;75.57;98403.44;4890201;29;19947;-69
2022/04/16 11:56:59;;;;;;;;;;;;;;;20.42;68.14;98402.78;4886313;29;20398;-69
2022/04/16 11:59:28;;;;;;;;;;;;;;;20.40;66.61;98388.25;4886350;29;19954;-69
2022/04/16 12:02:05;;;;;;;;;;;;;;;20.30;68.05;98395.91;4888221;29;19956;-69
2022/04/16 12:04:39;;;;;;;;;;;;;;;20.29;65.65;98388.66;4889028;29;20210;-69
2022/04/16 12:07:10;;;;;;;;;;;;;;;20.24;66.21;98388.44;4867293;29;19973;-69
2022/04/16 12:09:42;;;;;;;;;;;;;;;20.23;67.31;98390.50;4879822;29;19960;-69
2022/04/16 12:12:12;;;;;;;;;;;;;;;20.26;65.63;98391.63;4886254;29;19957;-69
2022/04/16 12:14:52;;;;;;;;;;;;;;;20.36;68.87;98384.75;4870181;29;19958;-68
2022/04/16 12:17:24;;;;;;;;;;;;;;;20.43;71.12;98386.53;4885884;29;19969;-70
2022/04/16 12:19:57;;;;;;;;;;;;;;;20.42;66.75;98390.66;4881826;29;19953;-68
2022/04/16 12:22:25;;;;;;;;;;;;;;;20.48;74.78;98378.22;4884337;29;19971;-69
2022/04/16 12:24:52;;;;;;;;;;;;;;;20.45;67.75;98379.16;4883000;29;19956;-69
2022/04/16 12:27:26;;;;;;;;;;;;;;;20.36;70.32;98376.25;4884480;29;19949;-69
2022/04/16 12:29:57;;;;;;;;;;;;;;;20.28;69.45;98370.03;4881870;29;19955;-69
2022/04/16 12:32:26;;;;;;;;;;;;;;;20.41;64.13;98372.00;4884373;29;19950;-69
2022/04/16 12:34:53;;;;;;;;;;;;;;;20.38;65.62;98367.25;4884614;29;19948;-69
2022/04/16 12:37:21;;;;;;;;;;;;;;;20.39;64.91;98363.97;4885654;29;19964;-69
2022/04/16 12:39:49;;;;;;;;;;;;;;;20.29;66.59;98348.91;4881209;29;19953;-69
2022/04/16 12:42:16;;;;;;;;;;;;;;;20.37;70.26;98354.31;4884369;29;19949;-69
2022/04/16 12:44:44;;;;;;;;;;;;;;;20.44;71.96;98357.69;4882048;29;19954;-70
2022/04/16 12:47:11;;;;;;;;;;;;;;;20.35;69.07;98356.81;4882533;29;19976;-69
2022/04/16 12:49:38;;;;;;;;;;;;;;;20.40;66.82;98339.97;4882939;29;19957;-69
2022/04/16 12:52:06;;;;;;;;;;;;;;;20.50;71.68;98340.81;4885455;29;19964;-69
2022/04/16 12:54:35;;;;;;;;;;;;;;;20.46;69.61;98340.97;4884993;29;19957;-69
2022/04/16 12:57:02;;;;;;;;;;;;;;;20.44;76.29;98337.00;4884895;29;19974;-69
2022/04/16 12:59:30;;;;;;;;;;;;;;;20.32;70.59;98352.06;4882805;29;19957;-69
2022/04/16 13:01:57;;;;;;;;;;;;;;;20.27;75.33;98337.19;4885409;29;19961;-69
2022/04/16 13:04:24;;;;;;;;;;;;;;;20.17;73.95;98329.81;4882969;29;20272;-69
2022/04/16 13:06:52;;;;;;;;;;;;;;;20.28;74.94;98332.31;4884203;29;19983;-68
2022/04/16 13:09:19;;;;;;;;;;;;;;;20.45;74.58;98330.06;4884012;29;19950;-68
2022/04/16 13:11:51;;;;;;;;;;;;;;;20.34;74.01;98341.03;4883325;29;19957;-69
2022/04/16 13:14:18;;;;;;;;;;;;;;;20.32;74.21;98320.84;4884394;29;21865;-69
2022/04/16 13:16:45;;;;;;;;;;;;;;;20.32;74.92;98323.66;4884216;29;19953;-69
2022/04/16 13:19:13;;;;;;;;;;;;;;;20.24;73.18;98323.94;4884631;29;19950;-69
2022/04/16 13:21:41;;;;;;;;;;;;;;;20.39;77.53;98326.25;4884844;29;19950;-69
2022/04/16 13:24:11;;;;;;;;;;;;;;;20.18;74.56;98302.22;4884702;29;19947;-69
2022/04/16 13:26:38;;;;;;;;;;;;;;;20.12;77.45;98321.91;4884594;29;19951;-69
2022/04/16 13:29:06;;;;;;;;;;;;;;;20.22;74.18;98320.75;4883134;29;19954;-69
2022/04/16 13:31:34;;;;;;;;;;;;;;;20.20;74.17;98300.50;4884358;29;19950;-69
2022/04/16 13:34:02;;;;;;;;;;;;;;;20.14;71.56;98310.09;4881889;29;19952;-69
2022/04/16 13:36:29;;;;;;;;;;;;;;;20.15;74.93;98298.25;4883921;29;19951;-69
2022/04/16 13:38:57;;;;;;;;;;;;;;;20.22;75.29;98303.72;4882748;29;19966;-70
2022/04/16 13:41:39;;;;;;;;;;;;;;;20.19;75.71;98295.31;4881787;29;19957;-69
2022/04/16 13:44:08;;;;;;;;;;;;;;;20.20;73.33;98294.03;4883110;29;19950;-69
2022/04/16 13:46:36;;;;;;;;;;;;;;;20.19;69.87;98286.78;4881639;29;19954;-69
2022/04/16 13:49:04;;;;;;;;;;;;;;;20.26;74.40;98283.72;4882253;29;19953;-69
2022/04/16 13:51:33;;;;;;;;;;;;;;;20.09;70.69;98287.97;4883270;29;19958;-69
2022/04/16 13:54:00;;;;;;;;;;;;;;;20.07;74.84;98273.44;4883769;29;19984;-69
2022/04/16 13:56:27;;;;;;;;;;;;;;;19.97;69.01;98269.75;4883420;29;19949;-69
2022/04/16 13:58:55;;;;;;;;;;;;;;;20.01;72.83;98259.06;4881906;29;19966;-69
2022/04/16 14:01:23;;;;;;;;;;;;;;;20.13;71.96;98265.91;4882932;29;19952;-68
2022/04/16 14:03:50;;;;;;;;;;;;;;;20.22;74.85;98277.34;4882725;29;19956;-68
2022/04/16 14:06:18;;;;;;;;;;;;;;;20.22;73.61;98275.31;4883943;29;19954;-68
2022/04/16 14:08:45;;;;;;;;;;;;;;;20.26;72.02;98269.50;4883584;29;19949;-69
2022/04/16 14:11:16;;;;;;;;;;;;;;;20.14;68.28;98268.31;4883838;29;19958;-68
2022/04/16 14:13:44;;;;;;;;;;;;;;;20.10;68.46;98275.38;4883025;29;20376;-68
2022/04/16 14:19:25;;;;;;;;;;;;;;;20.21;73.89;98268.03;4835665;29;19958;-68
2022/04/16 14:21:55;;;;;;;;;;;;;;;19.99;76.45;98267.25;4833607;29;19957;-69
2022/04/16 14:24:23;;;;;;;;;;;;;;;19.80;78.86;98276.06;4845102;29;19951;-69
2022/04/16 14:26:50;;;;;;;;;;;;;;;19.71;78.60;98287.34;4843703;29;19952;-69
2022/04/16 14:29:17;;;;;;;;;;;;;;;19.59;78.17;98288.97;4840093;29;19962;-68
2022/04/16 14:31:45;;;;;;;;;;;;;;;19.43;79.89;98286.28;4839719;29;19957;-68
2022/04/16 14:34:12;;;;;;;;;;;;;;;19.19;75.12;98290.72;4843072;29;20366;-69
2022/04/16 14:36:39;;;;;;;;;;;;;;;19.20;75.83;98290.25;4842942;29;19954;-69
2022/04/16 14:39:07;;;;;;;;;;;;;;;19.05;71.39;98308.22;4837392;29;19974;-71
2022/04/16 14:41:34;;;;;;;;;;;;;;;18.86;65.81;98298.69;4841699;29;19950;-71
2022/04/16 14:44:05;;;;;;;;;;;;;;;18.78;63.86;98300.94;4846253;29;19953;-71
2022/04/16 14:46:36;;;;;;;;;;;;;;;18.68;66.26;98301.28;4844504;29;20244;-71
2022/04/16 14:49:04;;;;;;;;;;;;;;;18.58;66.59;98303.22;4840439;29;19961;-71
2022/04/16 14:51:33;;;;;;;;;;;;;;;18.57;67.03;98312.13;4846094;29;19960;-71
2022/04/16 14:54:01;;;;;;;;;;;;;;;18.48;69.37;98324.16;4845798;29;19951;-71
2022/04/16 14:56:28;;;;;;;;;;;;;;;18.40;69.26;98325.56;4842913;29;20375;-71
2022/04/16 14:58:58;;;;;;;;;;;;;;;18.35;65.85;98323.28;4846015;29;20272;-68
2022/04/16 15:01:25;;;;;;;;;;;;;;;18.30;64.64;98316.16;4845136;29;19981;-70
2022/04/16 15:03:52;;;;;;;;;;;;;;;18.26;67.64;98320.31;4845125;29;19954;-71
2022/04/16 15:06:19;;;;;;;;;;;;;;;18.21;65.60;98320.88;4845581;29;20348;-70
2022/04/16 15:08:47;;;;;;;;;;;;;;;18.22;65.66;98326.06;4845219;29;19962;-69
2022/04/16 15:11:14;;;;;;;;;;;;;;;18.14;66.60;98335.22;4847216;29;19951;-70
2022/04/16 15:13:42;;;;;;;;;;;;;;;18.07;64.26;98330.56;4849895;29;19952;-70
2022/04/16 15:16:09;;;;;;;;;;;;;;;18.06;65.75;98345.97;4849743;29;19977;-71
2022/04/16 15:18:37;;;;;;;;;;;;;;;17.93;67.64;98345.09;4848399;29;19976;-72
2022/04/16 15:21:05;;;;;;;;;;;;;;;17.77;70.98;98356.47;4849356;29;19950;-72
2022/04/16 15:23:33;;;;;;;;;;;;;;;17.66;76.22;98368.03;4849084;29;20336;-72
2022/04/16 15:26:04;;;;;;;;;;;;;;;17.58;79.67;98391.31;4850427;29;19953;-71
2022/04/16 15:28:32;;;;;;;;;;;;;;;17.49;84.40;98396.72;4849779;29;19980;-72
2022/04/16 15:31:07;;;;;;;;;;;;;;;17.37;84.48;98418.03;4849171;29;19949;-70
2022/04/16 15:33:34;;;;;;;;;;;;;;;17.22;80.74;98430.91;4850201;29;19964;-73
2022/04/16 15:36:02;;;;;;;;;;;;;;;17.12;75.46;98436.81;4849141;29;19954;-72
2022/04/16 15:38:29;;;;;;;;;;;;;;;17.01;75.47;98439.88;4848702;29;19974;-71
2022/04/16 15:40:57;;;;;;;;;;;;;;;16.74;71.98;98459.81;4848192;29;19956;-71
2022/04/16 15:43:24;;;;;;;;;;;;;;;16.15;74.97;98487.94;4844645;29;19957;-71
2022/04/16 15:45:52;;;;;;;;;;;;;;;15.76;87.68;98516.03;4835901;29;19956;-71
2022/04/16 15:48:19;;;;;;;;;;;;;;;15.38;97.18;98517.38;4845198;29;19954;-71
2022/04/16 15:50:46;;;;;;;;;;;;;;;14.98;100.00;98510.69;4848095;29;19953;-70
2022/04/16 15:53:14;;;;;;;;;;;;;;;14.60;100.00;98500.72;4848620;29;19949;-71
2022/04/16 15:55:41;;;;;;;;;;;;;;;14.12;100.00;98478.28;4847878;29;19955;-70
2022/04/16 15:58:08;;;;;;;;;;;;;;;13.98;100.00;98455.94;4848008;29;19982;-71
2022/04/16 16:00:35;;;;;;;;;;;;;;;13.65;100.00;98444.19;4848131;29;19957;-70
2022/04/16 16:03:03;;;;;;;;;;;;;;;13.61;100.00;98437.00;4846666;29;19957;-70
2022/04/16 16:05:30;;;;;;;;;;;;;;;13.48;100.00;98408.59;4847064;29;19947;-71
2022/04/16 16:07:57;;;;;;;;;;;;;;;13.10;100.00;98353.56;4847726;29;19948;-71
2022/04/16 16:10:24;;;;;;;;;;;;;;;13.29;100.00;98293.22;4847683;29;19951;-70
2022/04/16 16:12:52;;;;;;;;;;;;;;;13.07;100.00;98301.06;4846757;29;19974;-70
2022/04/16 16:15:20;;;;;;;;;;;;;;;12.98;100.00;98304.28;4847263;29;19952;-70
2022/04/16 16:17:48;;;;;;;;;;;;;;;12.91;100.00;98337.25;4846395;29;20264;-68
2022/04/16 16:20:16;;;;;;;;;;;;;;;12.77;100.00;98356.97;4844418;29;20345;-70
2022/04/16 16:22:44;;;;;;;;;;;;;;;12.67;100.00;98363.44;4846152;29;19957;-68
2022/04/16 16:25:11;;;;;;;;;;;;;;;12.69;100.00;98364.63;4845757;29;19955;-69
2022/04/16 16:27:39;;;;;;;;;;;;;;;12.75;100.00;98365.00;4853026;29;20247;-71
2022/04/16 16:30:09;;;;;;;;;;;;;;;12.75;100.00;98365.00;4846180;29;19958;-69
2022/04/16 16:32:36;;;;;;;;;;;;;;;12.75;100.00;98365.81;4845788;29;19960;-68
2022/04/16 16:35:08;;;;;;;;;;;;;;;12.83;100.00;98364.56;4846522;29;19954;-68
2022/04/16 16:37:37;;;;;;;;;;;;;;;12.93;100.00;98376.94;4847121;29;19963;-69
2022/04/16 16:40:05;;;;;;;;;;;;;;;12.92;100.00;98378.94;4847972;29;19969;-69
2022/04/16 16:42:32;;;;;;;;;;;;;;;12.95;100.00;98375.31;4847594;29;20407;-69
2022/04/16 16:44:59;;;;;;;;;;;;;;;13.02;100.00;98383.69;4847800;29;19982;-69
2022/04/16 16:47:26;;;;;;;;;;;;;;;13.08;100.00;98378.47;4846049;29;19966;-69
2022/04/16 16:49:54;;;;;;;;;;;;;;;13.18;100.00;98394.41;4836814;29;20216;-68
2022/04/16 16:52:21;;;;;;;;;;;;;;;13.22;100.00;98398.00;4855411;29;19967;-68
2022/04/16 16:54:48;;;;;;;;;;;;;;;13.28;100.00;98396.34;4847673;29;19957;-68
2022/04/16 16:57:17;;;;;;;;;;;;;;;13.44;100.00;98402.25;4847433;29;19971;-69
2022/04/16 16:59:44;;;;;;;;;;;;;;;13.44;100.00;98410.66;4847015;29;19967;-69
2022/04/16 17:05:03;;;;;;;;;;;;;;;13.72;100.00;98406.78;4865665;29;20326;-69
2022/04/16 17:07:31;;;;;;;;;;;;;;;13.74;100.00;98405.16;4865247;29;20336;-68
2022/04/16 17:09:58;;;;;;;;;;;;;;;13.80;100.00;98400.69;4865754;29;19958;-69
2022/04/16 17:12:26;;;;;;;;;;;;;;;13.86;100.00;98398.22;4865616;29;19951;-69
2022/04/16 17:20:25;;;;;;;;;;;;;;;13.86;100.00;98377.75;4842491;29;19976;-68
2022/04/16 17:22:53;;;;;;;;;;;;;;;13.86;100.00;98386.97;4845977;29;20259;-69
2022/04/16 17:25:21;;;;;;;;;;;;;;;13.90;100.00;98409.41;4846581;29;19959;-69
2022/04/16 17:27:51;;;;;;;;;;;;;;;13.92;100.00;98390.91;4846405;29;19948;-69
2022/04/16 17:30:20;;;;;;;;;;;;;;;13.92;100.00;98385.28;4845843;29;19959;-69
2022/04/16 17:32:47;;;;;;;;;;;;;;;13.97;100.00;98387.66;4847254;29;19947;-69
2022/04/16 17:35:15;;;;;;;;;;;;;;;13.98;100.00;98386.44;4846600;29;19960;-69
2022/04/16 17:37:48;;;;;;;;;;;;;;;13.93;100.00;98398.16;4846473;29;19957;-69
2022/04/16 17:40:16;;;;;;;;;;;;;;;13.93;100.00;98411.41;4843221;29;19968;-69
2022/04/16 17:42:44;;;;;;;;;;;;;;;13.92;100.00;98418.22;4845135;29;19955;-70
2022/04/16 17:45:11;;;;;;;;;;;;;;;13.89;100.00;98422.66;4845341;29;20263;-69
2022/04/16 17:47:39;;;;;;;;;;;;;;;13.94;100.00;98435.50;4850039;29;19959;-69
2022/04/16 17:50:09;;;;;;;;;;;;;;;13.93;100.00;98445.13;4846016;29;19950;-69
2022/04/16 17:52:36;;;;;;;;;;;;;;;13.89;100.00;98444.38;4845629;29;19952;-69
2022/04/16 17:55:04;;;;;;;;;;;;;;;13.86;100.00;98446.00;4852232;29;19954;-69
2022/04/16 17:57:31;;;;;;;;;;;;;;;13.78;100.00;98441.66;4842017;29;19963;-69
2022/04/16 17:59:59;;;;;;;;;;;;;;;13.75;100.00;98434.06;4845106;29;19963;-69
2022/04/16 18:02:26;;;;;;;;;;;;;;;13.74;100.00;98427.63;4846309;29;20247;-69
2022/04/16 18:04:54;;;;;;;;;;;;;;;13.68;100.00;98423.69;4846343;29;19950;-69
2022/04/16 18:07:21;;;;;;;;;;;;;;;13.66;100.00;98428.13;4845664;29;19966;-69
2022/04/16 18:09:48;;;;;;;;;;;;;;;13.70;100.00;98421.25;4844731;29;19950;-69
2022/04/16 18:12:16;;;;;;;;;;;;;;;13.69;100.00;98430.88;4846399;29;20451;-69
2022/04/16 18:14:44;;;;;;;;;;;;;;;13.68;100.00;98425.69;4836087;29;19959;-69
2022/04/16 18:17:12;;;;;;;;;;;;;;;13.64;100.00;98431.38;4845058;29;19963;-69
2022/04/16 18:19:39;;;;;;;;;;;;;;;13.63;100.00;98429.75;4846303;29;19972;-69
2022/04/16 18:22:09;;;;;;;;;;;;;;;13.60;100.00;98449.44;4846180;29;19965;-69
2022/04/16 18:24:42;;;;;;;;;;;;;;;13.60;98.89;98449.44;4844888;29;19954;-69
2022/04/16 18:27:10;;;;;;;;;;;;;;;13.62;97.95;98453.44;4845551;29;19958;-69
2022/04/16 18:29:38;;;;;;;;;;;;;;;13.65;96.20;98454.63;4845812;29;19950;-69
2022/04/16 18:32:06;;;;;;;;;;;;;;;13.63;98.27;98466.28;4845989;29;20244;-69
2022/04/16 18:34:36;;;;;;;;;;;;;;;13.65;95.44;98471.47;4845264;29;19958;-69
2022/04/16 18:37:03;;;;;;;;;;;;;;;13.66;94.11;98476.69;4844516;29;19981;-69
2022/04/16 18:39:31;;;;;;;;;;;;;;;13.68;95.22;98474.28;4845589;29;19978;-69
2022/04/16 18:42:01;;;;;;;;;;;;;;;13.66;98.65;98479.50;4844899;29;19957;-69
2022/04/16 18:44:28;;;;;;;;;;;;;;;13.66;93.42;98485.13;4844942;29;19949;-69
2022/04/16 18:46:59;;;;;;;;;;;;;;;13.64;93.08;98483.94;4845038;29;19961;-69
2022/04/16 18:49:27;;;;;;;;;;;;;;;13.65;94.01;98502.38;4845384;29;20366;-69
2022/04/16 18:51:54;;;;;;;;;;;;;;;13.72;90.10;98513.56;4844321;29;19963;-69
2022/04/16 18:54:22;;;;;;;;;;;;;;;13.72;90.59;98517.19;4844889;29;19952;-69
2022/04/16 18:56:52;;;;;;;;;;;;;;;13.73;89.45;98520.81;4845289;29;19952;-69
2022/04/16 18:59:20;;;;;;;;;;;;;;;13.74;89.26;98528.03;4845763;29;20519;-69
2022/04/16 19:07:19;;;;;;;;;;;;;;;13.66;89.79;98538.53;4839486;29;19957;-69
2022/04/16 19:09:48;;;;;;;;;;;;;;;13.67;89.25;98536.50;4832869;29;19951;-69
2022/04/16 19:12:15;;;;;;;;;;;;;;;13.63;91.51;98541.34;4840694;29;19979;-71
2022/04/16 19:14:46;;;;;;;;;;;;;;;13.60;90.36;98542.16;4838316;29;19965;-71
2022/04/16 19:17:14;;;;;;;;;;;;;;;13.62;91.07;98540.53;4842335;29;19967;-72
2022/04/16 19:19:41;;;;;;;;;;;;;;;13.59;90.00;98555.44;4844234;29;19973;-71
2022/04/16 19:22:10;;;;;;;;;;;;;;;13.56;90.34;98553.44;4844904;29;19950;-72
2022/04/16 19:24:40;;;;;;;;;;;;;;;13.55;90.10;98560.25;4840157;29;19956;-72
2022/04/16 19:27:10;;;;;;;;;;;;;;;13.55;89.53;98560.25;4843503;29;20338;-71